Portada
METAR-TAF:

METAR-TAF

Aeroports :

Kota Kinabalu, Malàisia

latitud: 05-56N, longitud: 116-03E, altitud: 3 m

Observació

L'informe es va fer fa 42 minuts, a les 16:30 UTC
Vent 2 kt amb direcció variable
Temperatura 26°C
Humitat 89%
Pressió 1010 hPa
Visibilitat: 6000 m
Escasses núvols a una alçada de 1500 ft
Cel ennuvolat a una alçada de 27000 ft

METAR: WBKK 211630Z VRB02KT 6000 FEW015 BKN270 26/24 Q1010 NOSIG

Hora: 01:12 (17:12 UTC)

Pronòstic

L'informe es va fer fa 6 hores i 12 minuts, a les 11:00 UTC
Pronòstic vàlid del 21 a les 12 UTC al 22 a les 12 UTC
Vent 5 kt del Est/Sud-Est
Visibilitat: 6000 m
Escasses núvols a una alçada de 1500 ft
Evolucionant progressivament
l' 22 a les 01 UTC al 22 a les 03 UTC
Vent 5 kt del Oest/Nord-Oest

TAF: WBKK 211100Z 2112/2212 11005KT 6000 FEW015 BECMG 2201/2203 30005KT

Observacions i pronòstics meteorològics de més de 4000 aeroports (METAR i TAF).

Les estacions disponibles són els punts grocs i vermells al mapa.

Posi el ratolí al punt desitjat per veure el nom de l'estació.

Feu clic per veure les observacions i els pronòstics meteorològics.

Per canviar el mapa: feu clic els botons verds amb una creu de color negre per apropar; al botó verd amb un guió per allunyar la imatge; o en les fletxes verdes per a mapes adjacents.


METAR-TAF: